Time;durP1;ratioP1;P1;durP2;ratioP2;P2;SDS_P1;SDS_P2;PMS_P1;PMS_P2;Temp;Humidity;BMP_temperature;BMP_pressure;BME280_temperature;BME280_humidity;BME280_pressure;Samples;Min_cycle;Max_cycle;Signal;HPM_P1;HPM_P2
2022/09/27 00:01:28;;;;;;;16.23;10.50;;;;;;;;;;5009236;28;20184;-64
2022/09/27 00:03:55;;;;;;;16.30;10.47;;;;;;;;;;5009422;28;20275;-64
2022/09/27 00:06:25;;;;;;;15.60;9.73;;;;;;;;;;5009793;28;20184;-64
2022/09/27 00:08:52;;;;;;;14.97;9.70;;;;;;;;;;5027483;28;20191;-64
2022/09/27 00:11:25;;;;;;;15.77;9.97;;;;;;;;;;5029102;28;20198;-64
2022/09/27 00:13:54;;;;;;;17.87;10.07;;;;;;;;;;5029231;28;20196;-64
2022/09/27 00:16:21;;;;;;;18.27;10.23;;;;;;;;;;5029048;28;20180;-64
2022/09/27 00:18:48;;;;;;;14.37;9.60;;;;;;;;;;5028640;28;20274;-64
2022/09/27 00:21:15;;;;;;;15.90;8.50;;;;;;;;;;5029407;28;20180;-64
2022/09/27 00:23:42;;;;;;;19.07;9.73;;;;;;;;;;5027890;28;20624;-65
2022/09/27 00:26:10;;;;;;;13.80;8.80;;;;;;;;;;5029060;28;20191;-64
2022/09/27 00:28:37;;;;;;;17.57;10.00;;;;;;;;;;5028719;28;20274;-64
2022/09/27 00:31:04;;;;;;;18.13;8.93;;;;;;;;;;5028885;28;20560;-64
2022/09/27 00:33:30;;;;;;;13.57;9.33;;;;;;;;;;5030940;28;20268;-64
2022/09/27 00:36:04;;;;;;;17.83;9.97;;;;;;;;;;5033083;28;20175;-63
2022/09/27 00:38:31;;;;;;;15.43;9.00;;;;;;;;;;4998830;28;20191;-64
2022/09/27 00:40:58;;;;;;;17.30;9.90;;;;;;;;;;5016625;28;20207;-63
2022/09/27 00:43:25;;;;;;;14.27;8.50;;;;;;;;;;4995732;28;20351;-64
2022/09/27 00:45:52;;;;;;;13.97;8.93;;;;;;;;;;5013263;28;20198;-63
2022/09/27 00:48:20;;;;;;;14.13;9.00;;;;;;;;;;4995914;28;21033;-64
2022/09/27 00:50:47;;;;;;;14.77;9.47;;;;;;;;;;4995295;28;20197;-64
2022/09/27 00:53:17;;;;;;;13.30;8.00;;;;;;;;;;4995317;28;20287;-64
2022/09/27 00:55:52;;;;;;;17.30;9.77;;;;;;;;;;4978886;28;20203;-64
2022/09/27 00:58:19;;;;;;;13.20;9.00;;;;;;;;;;4995117;28;20199;-64
2022/09/27 01:00:47;;;;;;;12.80;8.83;;;;;;;;;;4995088;28;20227;-64
2022/09/27 01:03:15;;;;;;;13.03;8.47;;;;;;;;;;4995424;28;20210;-64
2022/09/27 01:05:41;;;;;;;12.43;8.83;;;;;;;;;;4995037;28;20667;-64
2022/09/27 01:08:08;;;;;;;13.10;9.30;;;;;;;;;;4994846;28;20209;-63
2022/09/27 01:10:45;;;;;;;14.93;8.23;;;;;;;;;;4996523;28;20200;-64
2022/09/27 01:13:15;;;;;;;12.43;7.83;;;;;;;;;;5014881;28;20274;-63
2022/09/27 01:15:48;;;;;;;15.23;8.17;;;;;;;;;;5010073;28;20192;-64
2022/09/27 01:18:22;;;;;;;13.93;8.30;;;;;;;;;;4995151;28;20200;-64
2022/09/27 01:20:53;;;;;;;12.67;9.23;;;;;;;;;;4994636;28;20230;-64
2022/09/27 01:23:39;;;;;;;13.13;9.23;;;;;;;;;;4994484;28;20204;-64
2022/09/27 01:26:15;;;;;;;12.93;8.23;;;;;;;;;;4994649;28;20222;-64
2022/09/27 01:28:47;;;;;;;11.77;8.40;;;;;;;;;;4988043;28;20245;-64
2022/09/27 01:31:22;;;;;;;17.13;9.43;;;;;;;;;;5030885;28;20194;-63
2022/09/27 01:34:06;;;;;;;15.10;7.60;;;;;;;;;;5025790;28;20346;-63
2022/09/27 01:36:43;;;;;;;14.53;9.23;;;;;;;;;;5011162;28;20623;-64
2022/09/27 01:39:19;;;;;;;14.67;8.57;;;;;;;;;;5010844;28;20222;-63
2022/09/27 01:42:16;;;;;;;14.90;9.57;;;;;;;;;;5012451;28;20199;-63
2022/09/27 01:44:54;;;;;;;14.87;10.27;;;;;;;;;;5011854;28;20219;-64
2022/09/27 01:47:28;;;;;;;16.90;11.03;;;;;;;;;;5010615;28;20204;-64
2022/09/27 01:50:11;;;;;;;13.80;9.37;;;;;;;;;;4996334;28;20220;-64
2022/09/27 01:52:40;;;;;;;15.30;10.17;;;;;;;;;;5010624;28;20211;-64
2022/09/27 01:55:08;;;;;;;13.03;9.33;;;;;;;;;;4996201;28;20227;-63
2022/09/27 01:58:11;;;;;;;14.30;9.13;;;;;;;;;;5013625;28;20694;-64
2022/09/27 02:00:40;;;;;;;13.20;9.17;;;;;;;;;;5013633;28;20247;-63
2022/09/27 02:03:13;;;;;;;13.27;8.93;;;;;;;;;;5014014;28;20206;-64
2022/09/27 02:06:14;;;;;;;10.73;7.90;;;;;;;;;;4997019;28;20214;-63
2022/09/27 02:09:05;;;;;;;13.60;8.27;;;;;;;;;;5012758;28;20206;-63
2022/09/27 02:11:51;;;;;;;12.47;8.33;;;;;;;;;;5031170;28;20202;-63
2022/09/27 02:14:43;;;;;;;11.33;7.83;;;;;;;;;;5013118;28;20200;-64
2022/09/27 02:17:16;;;;;;;11.13;8.77;;;;;;;;;;5010892;28;20269;-64
2022/09/27 02:19:49;;;;;;;12.80;8.97;;;;;;;;;;5013147;28;20222;-64
2022/09/27 02:22:32;;;;;;;14.50;9.77;;;;;;;;;;5022484;28;20258;-64
2022/09/27 02:25:04;;;;;;;14.63;9.07;;;;;;;;;;5004773;28;21001;-64
2022/09/27 02:27:58;;;;;;;12.53;9.27;;;;;;;;;;5005774;28;20314;-64
2022/09/27 02:30:29;;;;;;;11.77;9.00;;;;;;;;;;5005890;28;20207;-64
2022/09/27 02:33:05;;;;;;;11.80;8.83;;;;;;;;;;5005941;28;21068;-64
2022/09/27 02:35:33;;;;;;;12.80;8.73;;;;;;;;;;5005827;28;20979;-66
2022/09/27 02:38:01;;;;;;;12.13;8.33;;;;;;;;;;5005968;28;20192;-67
2022/09/27 02:40:35;;;;;;;12.70;8.23;;;;;;;;;;5005559;28;20281;-67
2022/09/27 02:43:03;;;;;;;12.33;8.53;;;;;;;;;;5023277;28;20198;-66
2022/09/27 02:45:31;;;;;;;12.27;7.97;;;;;;;;;;5005632;28;20865;-65
2022/09/27 02:48:00;;;;;;;13.43;8.00;;;;;;;;;;5006557;28;20219;-66
2022/09/27 02:50:36;;;;;;;13.63;9.30;;;;;;;;;;5004423;28;20868;-65
2022/09/27 02:53:21;;;;;;;11.87;8.70;;;;;;;;;;5017503;28;20187;-64
2022/09/27 02:56:03;;;;;;;11.50;7.67;;;;;;;;;;5003941;28;20191;-64
2022/09/27 02:59:06;;;;;;;11.73;7.53;;;;;;;;;;4961666;28;20288;-64
2022/09/27 03:02:04;;;;;;;13.13;7.50;;;;;;;;;;5005865;28;20188;-64
2022/09/27 03:04:56;;;;;;;12.30;7.50;;;;;;;;;;5006672;28;20195;-64
2022/09/27 03:07:24;;;;;;;9.67;7.30;;;;;;;;;;5004805;28;20199;-66
2022/09/27 03:09:51;;;;;;;12.50;7.37;;;;;;;;;;5005589;28;20195;-65
2022/09/27 03:12:24;;;;;;;12.27;7.43;;;;;;;;;;5005199;28;21606;-65
2022/09/27 03:14:53;;;;;;;10.07;7.37;;;;;;;;;;5022852;28;20203;-66
2022/09/27 03:17:55;;;;;;;9.37;6.53;;;;;;;;;;4944988;29;20198;-65
2022/09/27 03:20:22;;;;;;;9.60;6.63;;;;;;;;;;4996491;28;20306;-64
2022/09/27 03:23:04;;;;;;;12.07;6.70;;;;;;;;;;4992643;28;20210;-64
2022/09/27 03:25:31;;;;;;;11.30;8.03;;;;;;;;;;5009887;28;20200;-64
2022/09/27 03:27:58;;;;;;;10.83;7.43;;;;;;;;;;5010481;28;20192;-65
2022/09/27 03:30:25;;;;;;;11.77;7.97;;;;;;;;;;5008797;28;20678;-65
2022/09/27 03:33:12;;;;;;;12.80;7.73;;;;;;;;;;4992599;28;20228;-66
2022/09/27 03:35:38;;;;;;;12.13;7.60;;;;;;;;;;5009737;28;20318;-65
2022/09/27 03:38:22;;;;;;;11.17;7.27;;;;;;;;;;5010919;28;20182;-65
2022/09/27 03:40:49;;;;;;;11.60;7.20;;;;;;;;;;5015130;28;20261;-65
2022/09/27 03:43:16;;;;;;;11.23;7.13;;;;;;;;;;5010388;28;20599;-65
2022/09/27 03:45:45;;;;;;;9.27;6.87;;;;;;;;;;5023287;28;20245;-64
2022/09/27 03:48:11;;;;;;;11.20;6.73;;;;;;;;;;5013969;28;20195;-64
2022/09/27 03:50:38;;;;;;;11.30;6.90;;;;;;;;;;5027784;28;20570;-65
2022/09/27 03:53:05;;;;;;;14.33;7.73;;;;;;;;;;5011496;28;20914;-64
2022/09/27 03:55:32;;;;;;;14.67;8.40;;;;;;;;;;5028303;28;20194;-66
2022/09/27 03:58:00;;;;;;;13.67;7.57;;;;;;;;;;5011159;28;20290;-66
2022/09/27 04:00:27;;;;;;;11.03;6.93;;;;;;;;;;5008883;28;20224;-65
2022/09/27 04:02:55;;;;;;;11.13;6.97;;;;;;;;;;5024775;28;20310;-65
2022/09/27 04:05:22;;;;;;;10.30;6.93;;;;;;;;;;5027641;28;20203;-65
2022/09/27 04:07:54;;;;;;;9.90;7.57;;;;;;;;;;5006580;28;20199;-64
2022/09/27 04:10:21;;;;;;;12.07;7.67;;;;;;;;;;5003044;28;20237;-64
2022/09/27 04:12:49;;;;;;;10.87;7.70;;;;;;;;;;5009884;28;20191;-65
2022/09/27 04:15:20;;;;;;;15.30;8.63;;;;;;;;;;5025589;28;20188;-64
2022/09/27 04:17:49;;;;;;;11.63;8.57;;;;;;;;;;5028060;28;20563;-64
2022/09/27 04:20:36;;;;;;;11.67;7.57;;;;;;;;;;5017601;28;20216;-65
2022/09/27 04:23:06;;;;;;;11.77;8.37;;;;;;;;;;5011657;28;20203;-64
2022/09/27 04:25:36;;;;;;;17.07;9.67;;;;;;;;;;5009871;28;20223;-64
2022/09/27 04:28:08;;;;;;;16.07;9.83;;;;;;;;;;5009760;28;20671;-64
2022/09/27 04:30:35;;;;;;;11.43;8.17;;;;;;;;;;5012935;28;20727;-64
2022/09/27 04:33:11;;;;;;;12.13;7.90;;;;;;;;;;5030270;28;20223;-64
2022/09/27 04:39:00;;;;;;;12.67;8.47;;;;;;;;;;5003098;28;20215;-64
2022/09/27 04:41:27;;;;;;;8.60;6.50;;;;;;;;;;5008677;28;20230;-65
2022/09/27 04:43:54;;;;;;;13.20;8.30;;;;;;;;;;5020433;28;20581;-64
2022/09/27 04:46:25;;;;;;;8.20;6.53;;;;;;;;;;5023743;28;20234;-65
2022/09/27 04:48:53;;;;;;;10.27;7.10;;;;;;;;;;5028208;28;20195;-65
2022/09/27 04:51:20;;;;;;;9.63;7.13;;;;;;;;;;5029178;28;21088;-65
2022/09/27 04:53:49;;;;;;;10.77;8.00;;;;;;;;;;5011561;28;20658;-65
2022/09/27 04:56:17;;;;;;;14.43;7.90;;;;;;;;;;5011165;28;20219;-65
2022/09/27 04:58:43;;;;;;;10.33;7.30;;;;;;;;;;5013822;28;20203;-65
2022/09/27 05:01:12;;;;;;;16.53;9.63;;;;;;;;;;5011585;28;20224;-65
2022/09/27 05:03:39;;;;;;;12.30;8.03;;;;;;;;;;5028556;28;20191;-65
2022/09/27 05:06:10;;;;;;;12.93;8.73;;;;;;;;;;5011249;28;20196;-65
2022/09/27 05:08:37;;;;;;;14.30;10.23;;;;;;;;;;5001931;28;20561;-65
2022/09/27 05:11:27;;;;;;;11.67;7.43;;;;;;;;;;4991442;28;20176;-65
2022/09/27 05:14:29;;;;;;;12.10;8.40;;;;;;;;;;4986940;28;20215;-65
2022/09/27 05:17:10;;;;;;;15.87;9.10;;;;;;;;;;4984579;28;20227;-65
2022/09/27 05:20:09;;;;;;;13.40;8.60;;;;;;;;;;4984695;28;20224;-65
2022/09/27 05:22:41;;;;;;;11.70;7.93;;;;;;;;;;5014145;28;20199;-65
2022/09/27 05:25:08;;;;;;;12.67;8.60;;;;;;;;;;5014293;28;20199;-65
2022/09/27 05:27:35;;;;;;;13.90;7.53;;;;;;;;;;5015137;28;20192;-65
2022/09/27 05:30:02;;;;;;;11.03;7.87;;;;;;;;;;5031904;28;20195;-65
2022/09/27 05:32:40;;;;;;;12.57;8.33;;;;;;;;;;5014283;28;20238;-65
2022/09/27 05:35:27;;;;;;;11.87;7.37;;;;;;;;;;5032141;28;20196;-65
2022/09/27 05:37:56;;;;;;;11.77;7.90;;;;;;;;;;5014541;28;20696;-65
2022/09/27 05:40:24;;;;;;;10.03;8.03;;;;;;;;;;5014103;28;20215;-65
2022/09/27 05:43:10;;;;;;;15.03;9.17;;;;;;;;;;5014221;28;20211;-65
2022/09/27 05:45:37;;;;;;;13.47;8.30;;;;;;;;;;5014612;28;20566;-65
2022/09/27 05:48:05;;;;;;;12.90;8.90;;;;;;;;;;5014123;28;20203;-65
2022/09/27 05:50:38;;;;;;;11.50;8.03;;;;;;;;;;5013863;28;20195;-65
2022/09/27 05:53:05;;;;;;;17.60;10.00;;;;;;;;;;5014193;28;20265;-65
2022/09/27 05:55:31;;;;;;;14.07;9.47;;;;;;;;;;5013947;28;20286;-65
2022/09/27 05:58:03;;;;;;;23.53;11.00;;;;;;;;;;5014060;28;20250;-65
2022/09/27 06:00:56;;;;;;;13.23;9.30;;;;;;;;;;5000823;28;20238;-65
2022/09/27 06:03:46;;;;;;;17.20;10.90;;;;;;;;;;4993923;28;20203;-65
2022/09/27 06:06:34;;;;;;;20.67;11.57;;;;;;;;;;5031985;28;20206;-65
2022/09/27 06:09:02;;;;;;;14.80;11.60;;;;;;;;;;5013904;28;20683;-65
2022/09/27 06:11:30;;;;;;;17.03;11.40;;;;;;;;;;5013936;28;20283;-65
2022/09/27 06:13:58;;;;;;;19.23;11.73;;;;;;;;;;5014005;28;20287;-65
2022/09/27 06:16:25;;;;;;;18.33;11.77;;;;;;;;;;5013772;28;20209;-65
2022/09/27 06:18:52;;;;;;;16.60;11.63;;;;;;;;;;5013901;28;20272;-65
2022/09/27 06:21:20;;;;;;;19.50;11.57;;;;;;;;;;5013739;28;20223;-65
2022/09/27 06:23:54;;;;;;;19.30;13.40;;;;;;;;;;5031850;28;20203;-65
2022/09/27 06:26:29;;;;;;;18.50;12.23;;;;;;;;;;5013722;28;20226;-65
2022/09/27 06:29:13;;;;;;;24.03;15.40;;;;;;;;;;5020597;28;20219;-64
2022/09/27 06:31:49;;;;;;;24.93;14.97;;;;;;;;;;5029666;28;20256;-65
2022/09/27 06:34:24;;;;;;;22.87;15.67;;;;;;;;;;5030015;28;20249;-65
2022/09/27 06:36:51;;;;;;;25.97;15.33;;;;;;;;;;5029406;28;20200;-65
2022/09/27 06:39:18;;;;;;;24.67;15.37;;;;;;;;;;5010555;28;20207;-65
2022/09/27 06:42:04;;;;;;;21.67;14.70;;;;;;;;;;5011277;28;20235;-65
2022/09/27 06:45:00;;;;;;;21.03;14.13;;;;;;;;;;4957631;28;20205;-65
2022/09/27 06:47:46;;;;;;;21.93;15.63;;;;;;;;;;5011018;28;20203;-65
2022/09/27 06:50:24;;;;;;;23.97;16.50;;;;;;;;;;4993512;28;20191;-65
2022/09/27 06:52:51;;;;;;;24.40;17.40;;;;;;;;;;4993567;28;20231;-65
2022/09/27 06:55:18;;;;;;;23.00;16.33;;;;;;;;;;4993514;28;20200;-65
2022/09/27 07:00:30;;;;;;;21.80;15.13;;;;;;;;;;4993891;28;20559;-65
2022/09/27 07:03:16;;;;;;;18.57;14.67;;;;;;;;;;5011045;28;20227;-65
2022/09/27 07:06:16;;;;;;;18.80;14.57;;;;;;;;;;5012555;28;20239;-65
2022/09/27 07:08:51;;;;;;;17.63;12.83;;;;;;;;;;4994779;28;20721;-65
2022/09/27 07:11:18;;;;;;;17.10;12.90;;;;;;;;;;4993020;28;20211;-65
2022/09/27 07:13:45;;;;;;;17.23;12.53;;;;;;;;;;5010767;28;20188;-66
2022/09/27 07:16:13;;;;;;;18.10;13.03;;;;;;;;;;4992919;28;20282;-66
2022/09/27 07:18:40;;;;;;;15.43;12.17;;;;;;;;;;4993002;28;20291;-65
2022/09/27 07:21:08;;;;;;;14.40;11.57;;;;;;;;;;4993126;28;20687;-65
2022/09/27 07:23:35;;;;;;;15.03;11.47;;;;;;;;;;4992809;28;20282;-65
2022/09/27 07:26:26;;;;;;;15.60;11.80;;;;;;;;;;4992855;28;20579;-65
2022/09/27 07:28:53;;;;;;;20.23;12.70;;;;;;;;;;5005325;28;20188;-65
2022/09/27 07:31:38;;;;;;;17.40;13.27;;;;;;;;;;5028571;28;20752;-65
2022/09/27 07:34:05;;;;;;;16.00;12.90;;;;;;;;;;5028762;28;20943;-65
2022/09/27 07:36:32;;;;;;;16.80;13.10;;;;;;;;;;5029099;28;20225;-65
2022/09/27 07:38:59;;;;;;;15.93;13.00;;;;;;;;;;5028513;28;21018;-65
2022/09/27 07:41:26;;;;;;;17.73;14.30;;;;;;;;;;5028390;28;20710;-65
2022/09/27 07:43:53;;;;;;;16.60;14.10;;;;;;;;;;5028523;28;20225;-65
2022/09/27 07:46:22;;;;;;;18.97;14.27;;;;;;;;;;5028372;28;20199;-65
2022/09/27 07:49:06;;;;;;;18.60;14.70;;;;;;;;;;5029672;28;20590;-65
2022/09/27 07:51:56;;;;;;;19.43;15.23;;;;;;;;;;5026680;28;20541;-65
2022/09/27 07:54:38;;;;;;;19.87;15.50;;;;;;;;;;5030117;28;20210;-65
2022/09/27 07:57:04;;;;;;;19.20;15.03;;;;;;;;;;5029550;28;20596;-65
2022/09/27 07:59:39;;;;;;;22.20;16.90;;;;;;;;;;5028261;28;20252;-65
2022/09/27 08:02:14;;;;;;;23.73;17.30;;;;;;;;;;5028045;28;20297;-65
2022/09/27 08:04:42;;;;;;;23.70;18.07;;;;;;;;;;5028160;28;20198;-65
2022/09/27 08:07:09;;;;;;;25.90;16.77;;;;;;;;;;5028135;28;20202;-65
2022/09/27 08:09:42;;;;;;;23.07;17.47;;;;;;;;;;5028168;28;20265;-65
2022/09/27 08:12:09;;;;;;;26.57;17.70;;;;;;;;;;5029729;28;20186;-65
2022/09/27 08:14:37;;;;;;;27.30;17.97;;;;;;;;;;5027997;28;20602;-65
2022/09/27 08:17:13;;;;;;;27.07;19.10;;;;;;;;;;5027964;28;20214;-65
2022/09/27 08:20:05;;;;;;;27.03;19.17;;;;;;;;;;5029297;28;20687;-65
2022/09/27 08:23:10;;;;;;;24.37;18.23;;;;;;;;;;5007113;28;20213;-65
2022/09/27 08:25:42;;;;;;;30.97;19.97;;;;;;;;;;4990819;28;20663;-65
2022/09/27 08:28:32;;;;;;;30.07;19.63;;;;;;;;;;5021522;28;20235;-66
2022/09/27 08:31:04;;;;;;;29.67;21.00;;;;;;;;;;5011409;28;20202;-65
2022/09/27 08:33:32;;;;;;;27.80;20.20;;;;;;;;;;5029244;28;20228;-66
2022/09/27 08:36:09;;;;;;;28.00;20.40;;;;;;;;;;5011952;28;20191;-65
2022/09/27 08:38:36;;;;;;;29.20;20.13;;;;;;;;;;5011386;28;20659;-65
2022/09/27 08:41:22;;;;;;;26.63;18.97;;;;;;;;;;5011415;28;20231;-66
2022/09/27 08:43:49;;;;;;;27.37;19.53;;;;;;;;;;5028962;28;20187;-66
2022/09/27 08:46:24;;;;;;;29.37;19.57;;;;;;;;;;5011818;28;20602;-66
2022/09/27 08:48:57;;;;;;;27.77;18.83;;;;;;;;;;5011146;28;20210;-65
2022/09/27 08:51:25;;;;;;;28.23;20.27;;;;;;;;;;5029297;28;20192;-65
2022/09/27 08:53:54;;;;;;;24.97;19.17;;;;;;;;;;5013713;28;20261;-66
2022/09/27 08:56:23;;;;;;;27.70;19.30;;;;;;;;;;5015171;28;20194;-66
2022/09/27 08:59:09;;;;;;;25.93;18.90;;;;;;;;;;5014893;28;20191;-66
2022/09/27 09:01:36;;;;;;;25.90;18.07;;;;;;;;;;5015104;28;20582;-66
2022/09/27 09:04:09;;;;;;;28.13;20.20;;;;;;;;;;5014850;28;20219;-66
2022/09/27 09:06:45;;;;;;;29.47;19.53;;;;;;;;;;5032959;28;20298;-65
2022/09/27 09:09:31;;;;;;;27.50;19.63;;;;;;;;;;5033026;28;20198;-65
2022/09/27 09:15:11;;;;;;;28.53;19.80;;;;;;;;;;5015220;28;20222;-65
2022/09/27 09:17:38;;;;;;;29.53;21.57;;;;;;;;;;5014971;28;20931;-65
2022/09/27 09:20:57;;;;;;;28.27;21.40;;;;;;;;;;4988307;28;20200;-65
2022/09/27 09:23:43;;;;;;;30.17;21.97;;;;;;;;;;5014841;28;20685;-65
2022/09/27 09:26:16;;;;;;;27.63;22.10;;;;;;;;;;5032672;28;20186;-65
2022/09/27 09:28:43;;;;;;;28.73;20.33;;;;;;;;;;5017765;28;20261;-65
2022/09/27 09:31:20;;;;;;;29.93;22.20;;;;;;;;;;5031196;28;20310;-65
2022/09/27 09:33:54;;;;;;;30.17;22.07;;;;;;;;;;5030774;28;20237;-65
2022/09/27 09:36:31;;;;;;;29.40;21.17;;;;;;;;;;5031463;28;20598;-66
2022/09/27 09:39:02;;;;;;;28.90;21.73;;;;;;;;;;5031211;28;20206;-66
2022/09/27 09:41:30;;;;;;;26.77;20.10;;;;;;;;;;5032125;28;20203;-65
2022/09/27 09:43:59;;;;;;;27.67;20.97;;;;;;;;;;5030758;28;20691;-65
2022/09/27 09:46:30;;;;;;;25.17;20.13;;;;;;;;;;5030644;28;20200;-66
2022/09/27 09:49:18;;;;;;;28.40;20.90;;;;;;;;;;5030548;28;20204;-66
2022/09/27 09:51:51;;;;;;;27.27;19.83;;;;;;;;;;5024134;28;20214;-66
2022/09/27 09:54:21;;;;;;;23.27;18.03;;;;;;;;;;5030623;28;20231;-66
2022/09/27 09:56:50;;;;;;;22.17;17.40;;;;;;;;;;5031604;28;20592;-66
2022/09/27 09:59:28;;;;;;;20.47;16.43;;;;;;;;;;5030285;28;20217;-66
2022/09/27 10:01:57;;;;;;;18.20;15.40;;;;;;;;;;5030625;28;20583;-66
2022/09/27 10:04:26;;;;;;;19.93;14.70;;;;;;;;;;5045257;28;20188;-66
2022/09/27 10:06:55;;;;;;;16.97;13.47;;;;;;;;;;5030395;28;20238;-66
2022/09/27 10:09:23;;;;;;;18.33;13.00;;;;;;;;;;5030305;28;20191;-66
2022/09/27 10:12:08;;;;;;;16.27;11.80;;;;;;;;;;5031822;28;20206;-66
2022/09/27 10:14:36;;;;;;;13.13;10.93;;;;;;;;;;5030061;28;20218;-66
2022/09/27 10:17:05;;;;;;;16.40;11.33;;;;;;;;;;5031223;28;20961;-66
2022/09/27 10:19:32;;;;;;;15.03;11.83;;;;;;;;;;5029778;28;20217;-66
2022/09/27 10:22:04;;;;;;;18.20;12.23;;;;;;;;;;5029925;28;20219;-66
2022/09/27 10:24:36;;;;;;;16.43;11.93;;;;;;;;;;5030182;28;20198;-66
2022/09/27 10:27:07;;;;;;;15.67;11.30;;;;;;;;;;5030051;28;20206;-66
2022/09/27 10:29:35;;;;;;;17.70;11.40;;;;;;;;;;5019042;28;20195;-66
2022/09/27 10:32:26;;;;;;;13.00;10.83;;;;;;;;;;5012906;28;20392;-66
2022/09/27 10:35:28;;;;;;;16.20;11.33;;;;;;;;;;5029884;28;20527;-66
2022/09/27 10:38:20;;;;;;;15.63;11.33;;;;;;;;;;5013188;28;20256;-66
2022/09/27 10:40:48;;;;;;;15.50;11.90;;;;;;;;;;5008292;28;20245;-66
2022/09/27 10:43:31;;;;;;;16.63;12.20;;;;;;;;;;5013168;28;20269;-66
2022/09/27 10:46:24;;;;;;;14.60;11.50;;;;;;;;;;5030359;28;20701;-65
2022/09/27 10:49:12;;;;;;;14.20;11.23;;;;;;;;;;5012795;28;20562;-66
2022/09/27 10:51:39;;;;;;;14.07;11.13;;;;;;;;;;5013102;28;21049;-66
2022/09/27 10:54:29;;;;;;;15.70;10.37;;;;;;;;;;5012897;28;20334;-66
2022/09/27 10:56:57;;;;;;;13.20;10.40;;;;;;;;;;5012763;28;20199;-66
2022/09/27 10:59:24;;;;;;;14.83;11.90;;;;;;;;;;5012466;28;20187;-66
2022/09/27 11:01:51;;;;;;;13.33;11.17;;;;;;;;;;5012819;28;20310;-66
2022/09/27 11:05:06;;;;;;;13.23;10.97;;;;;;;;;;5021080;28;20283;-66
2022/09/27 11:07:51;;;;;;;15.93;12.43;;;;;;;;;;5012508;28;20195;-66
2022/09/27 11:10:59;;;;;;;15.07;10.97;;;;;;;;;;5012675;28;20861;-65
2022/09/27 11:13:31;;;;;;;14.47;11.47;;;;;;;;;;5012528;28;20221;-65
2022/09/27 11:16:04;;;;;;;19.50;12.43;;;;;;;;;;5012053;28;20285;-66
2022/09/27 11:18:44;;;;;;;14.30;11.43;;;;;;;;;;5012703;28;20333;-66
2022/09/27 11:21:20;;;;;;;15.63;11.10;;;;;;;;;;5030359;28;20707;-66
2022/09/27 11:23:57;;;;;;;13.53;10.30;;;;;;;;;;5030220;28;20183;-66
2022/09/27 11:26:39;;;;;;;15.13;11.27;;;;;;;;;;5012239;28;20196;-65
2022/09/27 11:29:06;;;;;;;15.23;10.40;;;;;;;;;;5018812;28;20196;-65
2022/09/27 11:32:27;;;;;;;13.20;10.13;;;;;;;;;;4993190;28;20212;-66
2022/09/27 11:35:11;;;;;;;13.30;11.07;;;;;;;;;;5030353;28;20198;-65
2022/09/27 11:37:56;;;;;;;16.87;10.87;;;;;;;;;;5045390;28;20614;-66
2022/09/27 11:40:27;;;;;;;15.03;10.97;;;;;;;;;;5028371;28;20206;-66
2022/09/27 11:43:04;;;;;;;13.10;10.40;;;;;;;;;;5028488;28;20246;-65
2022/09/27 11:45:38;;;;;;;14.87;10.50;;;;;;;;;;5028949;28;20199;-66
2022/09/27 11:48:33;;;;;;;14.67;10.63;;;;;;;;;;5028930;28;20180;-66
2022/09/27 11:51:01;;;;;;;14.03;11.27;;;;;;;;;;5028317;28;20257;-66
2022/09/27 11:53:50;;;;;;;15.13;11.00;;;;;;;;;;5028610;28;20201;-66
2022/09/27 11:56:21;;;;;;;15.23;10.50;;;;;;;;;;5028619;28;20655;-66
2022/09/27 11:59:29;;;;;;;14.50;11.00;;;;;;;;;;5028361;28;20679;-66
2022/09/27 12:02:06;;;;;;;13.87;10.47;;;;;;;;;;5028403;28;20223;-66
2022/09/27 12:04:53;;;;;;;13.53;10.00;;;;;;;;;;5028036;28;20198;-66
2022/09/27 12:07:21;;;;;;;11.80;9.57;;;;;;;;;;5007887;28;20199;-66
2022/09/27 12:09:49;;;;;;;13.00;8.93;;;;;;;;;;5028035;28;20210;-65
2022/09/27 12:12:20;;;;;;;12.30;9.50;;;;;;;;;;5028673;28;20219;-66
2022/09/27 12:14:55;;;;;;;14.27;9.53;;;;;;;;;;5028162;28;20211;-66
2022/09/27 12:17:24;;;;;;;11.00;8.40;;;;;;;;;;5028169;28;20203;-65
2022/09/27 12:19:53;;;;;;;12.33;8.30;;;;;;;;;;5027813;28;20215;-66
2022/09/27 12:22:34;;;;;;;13.30;8.67;;;;;;;;;;5028131;28;20224;-65
2022/09/27 12:25:30;;;;;;;11.40;8.53;;;;;;;;;;5027865;28;20191;-66
2022/09/27 12:28:04;;;;;;;9.50;7.77;;;;;;;;;;5045623;28;20230;-66
2022/09/27 12:30:49;;;;;;;13.47;9.03;;;;;;;;;;5015449;28;20179;-66
2022/09/27 12:33:38;;;;;;;11.03;8.80;;;;;;;;;;5015587;28;20704;-65
2022/09/27 12:36:06;;;;;;;12.80;9.97;;;;;;;;;;5015413;28;20261;-66
2022/09/27 12:38:39;;;;;;;11.03;8.70;;;;;;;;;;5015536;28;20627;-65
2022/09/27 12:41:10;;;;;;;10.43;8.97;;;;;;;;;;5015054;28;20198;-65
2022/09/27 12:43:49;;;;;;;12.97;9.43;;;;;;;;;;5029902;28;20666;-66
2022/09/27 12:46:29;;;;;;;12.73;8.87;;;;;;;;;;5015180;28;20202;-65
2022/09/27 12:49:06;;;;;;;12.73;9.50;;;;;;;;;;5014695;28;20635;-65
2022/09/27 12:51:46;;;;;;;11.40;10.00;;;;;;;;;;5011779;28;20223;-65
2022/09/27 12:54:32;;;;;;;12.37;10.43;;;;;;;;;;4995958;28;20291;-64
2022/09/27 12:57:03;;;;;;;16.83;11.60;;;;;;;;;;4995071;28;20311;-65
2022/09/27 12:59:33;;;;;;;14.47;11.30;;;;;;;;;;5014691;28;20283;-65
2022/09/27 13:02:27;;;;;;;13.97;11.43;;;;;;;;;;5016366;28;20216;-65
2022/09/27 13:04:57;;;;;;;14.07;11.20;;;;;;;;;;5028107;28;20230;-64
2022/09/27 13:07:41;;;;;;;17.27;12.37;;;;;;;;;;5016362;28;20198;-65
2022/09/27 13:10:08;;;;;;;16.53;12.90;;;;;;;;;;5021270;28;20191;-65
2022/09/27 13:12:37;;;;;;;13.97;11.67;;;;;;;;;;5013977;28;20203;-64
2022/09/27 13:15:16;;;;;;;16.03;12.63;;;;;;;;;;5016510;28;20222;-65
2022/09/27 13:17:43;;;;;;;16.87;12.70;;;;;;;;;;5016256;28;20230;-66
2022/09/27 13:20:22;;;;;;;17.67;13.87;;;;;;;;;;5012863;28;20238;-65
2022/09/27 13:22:50;;;;;;;21.70;17.03;;;;;;;;;;5010688;28;20250;-66
2022/09/27 13:25:51;;;;;;;21.80;17.53;;;;;;;;;;5013428;28;20188;-65
2022/09/27 13:28:49;;;;;;;21.93;17.47;;;;;;;;;;5019990;28;20674;-65
2022/09/27 13:31:41;;;;;;;22.53;18.30;;;;;;;;;;5018392;28;20226;-66
2022/09/27 13:34:28;;;;;;;20.97;17.87;;;;;;;;;;5023188;28;20196;-65
2022/09/27 13:36:56;;;;;;;22.37;16.83;;;;;;;;;;5012885;28;20200;-65
2022/09/27 13:39:22;;;;;;;20.73;16.03;;;;;;;;;;5006157;28;20277;-65
2022/09/27 13:42:11;;;;;;;21.10;15.77;;;;;;;;;;5032123;28;20215;-65
2022/09/27 13:44:45;;;;;;;18.13;15.17;;;;;;;;;;5015712;28;20200;-64
2022/09/27 13:47:12;;;;;;;19.63;15.33;;;;;;;;;;5015591;28;20650;-65
2022/09/27 13:49:39;;;;;;;18.27;14.53;;;;;;;;;;5007129;28;20202;-65
2022/09/27 13:52:20;;;;;;;19.30;13.47;;;;;;;;;;5026451;28;20215;-64
2022/09/27 13:55:01;;;;;;;17.20;13.33;;;;;;;;;;5008508;28;20560;-63
2022/09/27 13:57:33;;;;;;;15.97;12.83;;;;;;;;;;5008322;28;20203;-64
2022/09/27 14:00:03;;;;;;;15.77;12.07;;;;;;;;;;5008109;28;20223;-64
2022/09/27 14:02:55;;;;;;;15.60;12.67;;;;;;;;;;5007717;28;20216;-65
2022/09/27 14:05:34;;;;;;;18.73;13.47;;;;;;;;;;5008838;28;20195;-65
2022/09/27 14:08:03;;;;;;;17.63;13.33;;;;;;;;;;5007895;28;20196;-64
2022/09/27 14:10:31;;;;;;;17.93;14.27;;;;;;;;;;5008646;28;20195;-65
2022/09/27 14:13:00;;;;;;;19.07;15.10;;;;;;;;;;5008053;28;20196;-64
2022/09/27 14:15:28;;;;;;;16.87;14.37;;;;;;;;;;5009043;28;20590;-64
2022/09/27 14:17:57;;;;;;;19.57;15.63;;;;;;;;;;5007619;28;20219;-64
2022/09/27 14:20:30;;;;;;;19.53;15.20;;;;;;;;;;5008874;28;20302;-64
2022/09/27 14:22:57;;;;;;;20.30;15.20;;;;;;;;;;5007452;28;20563;-63
2022/09/27 14:25:29;;;;;;;19.53;15.23;;;;;;;;;;5007050;28;20738;-65
2022/09/27 14:27:58;;;;;;;18.13;14.30;;;;;;;;;;5005481;28;20203;-64
2022/09/27 14:31:15;;;;;;;18.33;15.30;;;;;;;;;;5006128;28;20199;-63
2022/09/27 14:33:56;;;;;;;18.33;14.73;;;;;;;;;;5005660;28;20234;-64
2022/09/27 14:39:37;;;;;;;20.03;15.57;;;;;;;;;;5004801;28;20206;-62
2022/09/27 14:42:31;;;;;;;20.03;14.47;;;;;;;;;;4993671;28;20231;-63
2022/09/27 14:44:59;;;;;;;18.30;14.43;;;;;;;;;;5011067;28;20275;-64
2022/09/27 14:47:27;;;;;;;17.40;13.93;;;;;;;;;;5010536;28;20201;-62
2022/09/27 14:49:58;;;;;;;16.93;12.80;;;;;;;;;;5014657;28;20244;-65
2022/09/27 14:52:31;;;;;;;16.77;12.43;;;;;;;;;;5021702;28;20246;-62
2022/09/27 14:55:18;;;;;;;16.73;13.63;;;;;;;;;;5023965;28;20174;-65
2022/09/27 14:57:46;;;;;;;15.87;12.83;;;;;;;;;;5016844;28;20196;-66
2022/09/27 15:00:16;;;;;;;16.50;12.83;;;;;;;;;;5014439;28;20319;-63
2022/09/27 15:02:44;;;;;;;16.20;12.93;;;;;;;;;;5019736;28;20310;-64
2022/09/27 15:05:17;;;;;;;17.33;13.30;;;;;;;;;;5019351;28;20187;-65
2022/09/27 15:07:45;;;;;;;17.10;14.20;;;;;;;;;;5021104;28;20191;-65
2022/09/27 15:10:13;;;;;;;16.93;13.73;;;;;;;;;;5022351;28;20193;-66
2022/09/27 15:12:40;;;;;;;17.43;13.80;;;;;;;;;;5022370;28;20802;-66
2022/09/27 15:15:11;;;;;;;21.87;15.83;;;;;;;;;;5021452;28;20205;-64
2022/09/27 15:17:42;;;;;;;19.10;14.87;;;;;;;;;;5019862;28;20532;-65
2022/09/27 15:20:21;;;;;;;19.83;15.47;;;;;;;;;;5022916;28;20199;-66
2022/09/27 15:22:48;;;;;;;21.57;15.70;;;;;;;;;;5022877;28;20215;-65